createdAt,value
2023-02-01T00:04:14.939Z,97726.00
2023-02-01T00:09:19.876Z,97731.94
2023-02-01T00:14:23.062Z,97725.97
2023-02-01T00:19:26.549Z,97728.59
2023-02-01T00:24:31.475Z,97723.44
2023-02-01T00:29:34.480Z,97734.59
2023-02-01T00:34:38.106Z,97732.81
2023-02-01T00:39:42.821Z,97720.91
2023-02-01T00:44:46.117Z,97726.88
2023-02-01T00:49:49.568Z,97726.00
2023-02-01T00:54:54.315Z,97717.47
2023-02-01T00:59:57.783Z,97728.53
2023-02-01T01:05:01.272Z,97729.50
2023-02-01T01:10:07.476Z,97741.53
2023-02-01T01:15:11.700Z,97741.53
2023-02-01T01:20:15.377Z,97744.97
2023-02-01T01:25:20.175Z,97746.72
2023-02-01T01:30:23.995Z,97759.47
2023-02-01T01:35:27.647Z,97749.22
2023-02-01T01:40:33.317Z,97758.63
2023-02-01T01:45:37.263Z,97751.75
2023-02-01T01:50:45.020Z,97753.50
2023-02-01T01:55:51.740Z,97745.78
2023-02-01T02:00:56.206Z,97742.34
2023-02-01T02:06:01.647Z,97748.34
2023-02-01T02:11:06.756Z,97746.63
2023-02-01T02:16:26.223Z,97760.28
2023-02-01T02:21:45.620Z,97757.72
2023-02-01T02:27:24.110Z,97759.44
2023-02-01T02:32:55.094Z,97764.56
2023-02-01T02:38:08.169Z,97761.13
2023-02-01T02:43:33.290Z,97760.25
2023-02-01T02:48:41.105Z,97758.50
2023-02-01T02:54:11.258Z,97761.97
2023-02-01T02:59:37.341Z,97760.25
2023-02-01T03:04:41.802Z,97765.28
2023-02-01T03:09:49.938Z,97763.63
2023-02-01T03:14:58.980Z,97761.97
2023-02-01T03:20:05.291Z,97770.50
2023-02-01T03:25:15.299Z,97763.59
2023-02-01T03:30:22.741Z,97780.75
2023-02-01T03:35:31.641Z,97777.28
2023-02-01T03:40:39.973Z,97792.75
2023-02-01T03:45:46.495Z,97798.72
2023-02-01T03:50:54.617Z,97806.38
2023-02-01T03:56:00.189Z,97802.13
2023-02-01T04:01:03.755Z,97808.97
2023-02-01T04:06:07.856Z,97813.16
2023-02-01T04:11:12.570Z,97818.31
2023-02-01T04:16:16.186Z,97809.72
2023-02-01T04:21:19.656Z,97827.69
2023-02-01T04:26:24.569Z,97829.41
2023-02-01T04:31:28.721Z,97826.84
2023-02-01T04:36:32.226Z,97837.88
2023-02-01T04:41:37.027Z,97836.25
2023-02-01T04:46:40.352Z,97837.97
2023-02-01T04:51:44.243Z,97838.91
2023-02-01T04:56:48.968Z,97845.81
2023-02-01T05:01:52.497Z,97855.09
2023-02-01T05:06:55.972Z,97848.25
2023-02-01T05:12:17.780Z,97854.22
2023-02-01T05:17:21.133Z,97872.25
2023-02-01T05:22:24.617Z,97866.34
2023-02-01T05:27:31.591Z,97876.63
2023-02-01T05:32:35.273Z,97875.78
2023-02-01T05:37:38.721Z,97879.97
2023-02-01T05:42:43.696Z,97878.22
2023-02-01T05:47:47.028Z,97875.63
2023-02-01T05:52:50.453Z,97874.84
2023-02-01T05:57:55.248Z,97880.00
2023-02-01T06:02:58.736Z,97881.69
2023-02-01T06:08:02.250Z,97885.06
2023-02-01T06:13:07.361Z,97894.44
2023-02-01T06:18:11.584Z,97897.94
2023-02-01T06:23:15.028Z,97906.50
2023-02-01T06:28:19.839Z,97904.78
2023-02-01T06:33:23.113Z,97913.34
2023-02-01T06:38:27.438Z,97917.59
2023-02-01T06:43:33.879Z,97914.97
2023-02-01T06:48:37.764Z,97922.75
2023-02-01T06:53:41.187Z,97925.41
2023-02-01T06:58:47.328Z,97928.84
2023-02-01T07:03:52.368Z,97935.66
2023-02-01T07:08:57.019Z,97936.50
2023-02-01T07:14:01.932Z,97933.13
2023-02-01T07:19:06.647Z,97930.56
2023-02-01T07:24:10.112Z,97933.19
2023-02-01T07:29:15.007Z,97942.56
2023-02-01T07:34:18.171Z,97944.25
2023-02-01T07:39:21.642Z,97938.13
2023-02-01T07:44:26.562Z,97939.78
2023-02-01T07:49:29.598Z,97932.16
2023-02-01T07:54:33.029Z,97929.50
2023-02-01T07:59:57.751Z,97933.88
2023-02-01T08:05:01.169Z,97927.84
2023-02-01T08:10:06.855Z,97926.91
2023-02-01T08:15:12.496Z,97927.84
2023-02-01T08:20:16.608Z,97939.06
2023-02-01T08:25:20.275Z,97933.06
2023-02-01T08:30:25.461Z,97933.00
2023-02-01T08:35:42.448Z,97935.66
2023-02-01T08:40:47.425Z,97934.84
2023-02-01T08:45:53.641Z,97920.28
2023-02-01T08:50:58.300Z,97934.78
2023-02-01T08:56:02.009Z,97927.94
2023-02-01T09:01:08.826Z,97925.34
2023-02-01T09:06:14.362Z,97927.09
2023-02-01T09:11:20.582Z,97927.13
2023-02-01T09:16:26.063Z,97928.78
2023-02-01T09:21:29.501Z,97924.53
2023-02-01T09:26:33.257Z,97921.09
2023-02-01T09:31:41.742Z,97924.59
2023-02-01T09:36:45.684Z,97915.19
2023-02-01T09:41:59.134Z,97922.09
2023-02-01T09:47:04.161Z,97907.50
2023-02-01T09:52:10.746Z,97911.75
2023-02-01T09:57:21.671Z,97919.56
2023-02-01T10:02:29.379Z,97909.34
2023-02-01T10:07:43.709Z,97911.00
2023-02-01T10:13:12.177Z,97920.47
2023-02-01T10:18:34.199Z,97909.31
2023-02-01T10:24:16.117Z,97919.59
2023-02-01T10:29:23.047Z,97908.41
2023-02-01T10:34:30.340Z,97911.06
2023-02-01T10:39:33.739Z,97905.94
2023-02-01T10:44:45.463Z,97905.09
2023-02-01T10:49:57.911Z,97895.69
2023-02-01T10:55:30.673Z,97899.16
2023-02-01T11:00:43.822Z,97898.28
2023-02-01T11:05:48.874Z,97898.22
2023-02-01T11:11:00.890Z,97902.44
2023-02-01T11:16:06.500Z,97882.75
2023-02-01T11:21:12.072Z,97903.28
2023-02-01T11:26:24.961Z,97906.59
2023-02-01T11:31:30.089Z,97903.19
2023-02-01T11:36:36.257Z,97904.13
2023-02-01T11:41:47.012Z,97906.72
2023-02-01T11:46:50.394Z,97907.47
2023-02-01T11:52:14.571Z,97909.06
2023-02-01T11:57:35.413Z,97914.19
2023-02-01T12:03:08.806Z,97921.03
2023-02-01T12:08:36.999Z,97928.78
2023-02-01T12:13:53.986Z,97934.63
2023-02-01T12:19:18.307Z,97930.47
2023-02-01T12:25:01.721Z,97934.59
2023-02-01T12:30:38.554Z,97938.72
2023-02-01T12:35:54.555Z,97934.38
2023-02-01T12:41:12.141Z,97939.56
2023-02-01T12:46:24.045Z,97946.31
2023-02-01T12:51:32.092Z,97952.91
2023-02-01T12:56:42.676Z,97958.13
2023-02-01T13:01:53.435Z,97952.06
2023-02-01T13:07:05.913Z,97936.81
2023-02-01T13:12:16.171Z,97957.38
2023-02-01T13:17:26.070Z,97956.34
2023-02-01T13:22:34.566Z,97947.84
2023-02-01T13:27:38.345Z,97959.03
2023-02-01T13:33:54.446Z,97953.97
2023-02-01T13:39:34.222Z,97956.44
2023-02-01T13:44:42.904Z,97964.13
2023-02-01T13:49:48.007Z,97948.75
2023-02-01T13:54:51.544Z,97954.03
2023-02-01T13:59:56.868Z,97958.19
2023-02-01T14:05:02.044Z,97943.69
2023-02-01T14:10:39.514Z,97944.44
2023-02-01T14:16:11.043Z,97959.91
2023-02-01T14:21:24.469Z,97963.22
2023-02-01T14:26:30.346Z,97955.56
2023-02-01T14:31:54.409Z,97965.84
2023-02-01T14:37:03.300Z,97965.72
2023-02-01T14:42:18.546Z,97969.91
2023-02-01T14:47:34.036Z,97980.25
2023-02-01T14:52:43.963Z,97967.38
2023-02-01T14:57:51.403Z,97976.66
2023-02-01T15:02:56.513Z,97976.66
2023-02-01T15:08:08.070Z,97984.47
2023-02-01T15:13:22.186Z,97991.19
2023-02-01T15:18:25.850Z,97989.50
2023-02-01T15:23:31.809Z,97983.44
2023-02-01T15:28:35.585Z,97997.19
2023-02-01T15:33:39.077Z,97986.97
2023-02-01T15:38:44.824Z,97991.34
2023-02-01T15:44:05.043Z,97999.06
2023-02-01T15:49:22.825Z,97990.31
2023-02-01T15:54:32.129Z,98008.22
2023-02-01T15:59:45.191Z,98005.66
2023-02-01T16:04:52.429Z,97997.94
2023-02-01T16:10:00.752Z,98005.53
2023-02-01T16:15:04.623Z,98013.13
2023-02-01T16:20:10.503Z,98013.03
2023-02-01T16:25:15.591Z,98019.03
2023-02-01T16:30:24.083Z,98026.78
2023-02-01T16:35:30.956Z,98030.22
2023-02-01T16:40:35.689Z,98028.69
2023-02-01T16:45:41.283Z,98035.19
2023-02-01T16:50:45.054Z,98030.84
2023-02-01T16:55:50.617Z,98031.41
2023-02-01T17:00:55.133Z,98028.09
2023-02-01T17:05:59.688Z,98033.28
2023-02-01T17:11:05.416Z,97999.78
2023-02-01T17:16:17.830Z,98026.34
2023-02-01T17:21:21.680Z,98018.78
2023-02-01T17:26:26.774Z,98017.88
2023-02-01T17:31:30.522Z,98031.84
2023-02-01T17:36:33.843Z,98029.25
2023-02-01T17:41:39.348Z,98028.41
2023-02-01T17:46:42.802Z,98021.59
2023-02-01T17:51:46.303Z,98026.53
2023-02-01T17:56:51.118Z,98005.06
2023-02-01T18:02:00.875Z,98038.38
2023-02-01T18:07:04.378Z,98036.03
2023-02-01T18:12:20.070Z,98036.88
2023-02-01T18:17:23.944Z,98028.44
2023-02-01T18:22:27.443Z,98026.63
2023-02-01T18:27:32.287Z,98015.50
2023-02-01T18:32:35.748Z,98020.66
2023-02-01T18:37:39.090Z,98023.06
2023-02-01T18:42:44.640Z,98022.28
2023-02-01T18:47:48.231Z,98031.59
2023-02-01T18:52:54.967Z,98029.19
2023-02-01T18:58:00.405Z,98032.56
2023-02-01T19:03:03.988Z,98030.69
2023-02-01T19:08:07.665Z,98037.63
2023-02-01T19:13:14.664Z,98035.25
2023-02-01T19:18:20.450Z,98040.97
2023-02-01T19:23:23.945Z,98043.16
2023-02-01T19:28:28.844Z,98046.56
2023-02-01T19:33:32.673Z,98042.09
2023-02-01T19:38:36.020Z,98047.16
2023-02-01T19:43:40.892Z,98045.34
2023-02-01T19:48:44.153Z,98038.50
2023-02-01T19:53:47.651Z,98041.88
2023-02-01T19:58:53.108Z,98047.00
2023-02-01T20:04:01.707Z,98042.06
2023-02-01T20:09:05.205Z,98053.19
2023-02-01T20:14:11.194Z,98048.13
2023-02-01T20:19:15.988Z,98054.31
2023-02-01T20:24:19.691Z,98050.75
2023-02-01T20:29:25.411Z,98052.31
2023-02-01T20:34:28.580Z,98061.56
2023-02-01T20:39:32.493Z,98054.47
2023-02-01T20:44:37.252Z,98057.13
2023-02-01T20:49:41.270Z,98044.09
2023-02-01T20:54:44.903Z,98064.53
2023-02-01T20:59:49.864Z,98057.03
2023-02-01T21:04:53.433Z,98061.25
2023-02-01T21:09:57.530Z,98059.38
2023-02-01T21:15:02.437Z,98053.63
2023-02-01T21:20:09.831Z,98056.16
2023-02-01T21:25:13.215Z,98054.38
2023-02-01T21:30:18.475Z,98049.44
2023-02-01T21:35:22.089Z,98050.28
2023-02-01T21:40:25.752Z,98048.66
2023-02-01T21:45:30.508Z,98053.22
2023-02-01T21:50:35.389Z,98050.75
2023-02-01T21:55:38.476Z,98054.94
2023-02-01T22:00:45.817Z,98053.22
2023-02-01T22:05:51.203Z,98053.22
2023-02-01T22:10:54.553Z,98037.81
2023-02-01T22:15:59.791Z,98056.69
2023-02-01T22:21:04.019Z,98044.88
2023-02-01T22:26:09.604Z,98047.41
2023-02-01T22:31:14.849Z,98048.19
2023-02-01T22:36:19.078Z,98036.94
2023-02-01T22:41:22.693Z,98048.69
2023-02-01T22:46:29.992Z,98043.03
2023-02-01T22:51:34.070Z,98043.25
2023-02-01T22:56:38.682Z,98038.88
2023-02-01T23:01:44.355Z,98034.81
2023-02-01T23:06:47.811Z,98041.72
2023-02-01T23:11:51.389Z,98041.66
2023-02-01T23:16:56.214Z,98034.84
2023-02-01T23:21:59.662Z,98035.56
2023-02-01T23:27:03.400Z,98037.13
2023-02-01T23:32:09.913Z,98036.19
2023-02-01T23:37:13.493Z,98041.25
2023-02-01T23:42:17.047Z,98038.66
2023-02-01T23:47:21.837Z,98034.44
2023-02-01T23:52:25.155Z,98036.16
2023-02-01T23:57:28.650Z,98038.59
